createdAt,value
2018-12-18T00:01:00.860Z,13.67
2018-12-18T00:03:29.542Z,14.03
2018-12-18T00:05:58.205Z,13.67
2018-12-18T00:08:26.843Z,14.43
2018-12-18T00:11:00.732Z,14.70
2018-12-18T00:13:29.506Z,14.37
2018-12-18T00:15:58.130Z,14.67
2018-12-18T00:18:26.843Z,13.87
2018-12-18T00:20:55.549Z,14.40
2018-12-18T00:23:24.259Z,14.73
2018-12-18T00:25:53.066Z,15.53
2018-12-18T00:28:21.682Z,16.53
2018-12-18T00:30:50.381Z,16.07
2018-12-18T00:33:19.134Z,16.73
2018-12-18T00:35:47.776Z,15.63
2018-12-18T00:38:16.876Z,17.30
2018-12-18T00:40:45.525Z,17.67
2018-12-18T00:43:14.130Z,17.33
2018-12-18T00:45:43.132Z,18.83
2018-12-18T00:48:11.834Z,16.93
2018-12-18T00:50:40.585Z,17.33
2018-12-18T00:53:09.362Z,18.93
2018-12-18T00:55:38.001Z,18.63
2018-12-18T00:58:06.609Z,18.53
2018-12-18T01:00:35.300Z,18.20
2018-12-18T01:03:04.353Z,18.57
2018-12-18T01:05:33.027Z,17.90
2018-12-18T01:08:01.667Z,17.90
2018-12-18T01:10:30.353Z,18.70
2018-12-18T01:12:58.984Z,18.77
2018-12-18T01:15:27.896Z,19.90
2018-12-18T01:17:56.598Z,20.07
2018-12-18T01:20:25.264Z,19.93
2018-12-18T01:22:53.928Z,20.37
2018-12-18T01:25:22.610Z,20.20
2018-12-18T01:27:51.256Z,20.17
2018-12-18T01:30:19.927Z,21.07
2018-12-18T01:32:48.602Z,20.57
2018-12-18T01:35:17.217Z,21.60
2018-12-18T01:37:45.857Z,19.23
2018-12-18T01:40:14.808Z,21.30
2018-12-18T01:42:43.515Z,20.03
2018-12-18T01:45:12.231Z,21.27
2018-12-18T01:47:40.893Z,21.80
2018-12-18T01:50:09.705Z,22.33
2018-12-18T01:52:38.364Z,23.80
2018-12-18T01:55:07.563Z,22.87
2018-12-18T01:57:36.264Z,23.43
2018-12-18T02:00:05.243Z,23.40
2018-12-18T02:02:33.892Z,23.83
2018-12-18T02:05:02.523Z,23.43
2018-12-18T02:07:31.195Z,23.33
2018-12-18T02:09:59.845Z,22.17
2018-12-18T02:12:28.471Z,23.33
2018-12-18T02:14:57.124Z,22.53
2018-12-18T02:17:25.911Z,23.33
2018-12-18T02:19:54.563Z,21.77
2018-12-18T02:22:23.152Z,24.23
2018-12-18T02:24:51.823Z,21.50
2018-12-18T02:27:20.535Z,19.73
2018-12-18T02:29:49.106Z,22.00
2018-12-18T02:32:17.777Z,19.47
2018-12-18T02:34:46.374Z,21.37
2018-12-18T02:37:15.019Z,19.13
2018-12-18T02:39:43.601Z,18.80
2018-12-18T02:42:12.231Z,20.97
2018-12-18T02:44:40.871Z,20.93
2018-12-18T02:47:09.510Z,22.40
2018-12-18T02:49:38.158Z,22.67
2018-12-18T02:52:06.952Z,21.07
2018-12-18T02:54:35.588Z,21.17
2018-12-18T02:57:04.391Z,21.73
2018-12-18T02:59:33.084Z,20.40
2018-12-18T03:02:01.752Z,23.00
2018-12-18T03:04:30.378Z,22.40
2018-12-18T03:06:59.019Z,20.37
2018-12-18T03:09:27.665Z,23.60
2018-12-18T03:11:56.406Z,22.77
2018-12-18T03:14:25.087Z,22.97
2018-12-18T03:16:53.971Z,22.30
2018-12-18T03:19:22.623Z,22.67
2018-12-18T03:21:51.467Z,24.20
2018-12-18T03:24:20.066Z,22.73
2018-12-18T03:26:48.759Z,24.63
2018-12-18T03:29:17.435Z,24.20
2018-12-18T03:31:50.122Z,25.27
2018-12-18T03:34:18.793Z,24.23
2018-12-18T03:36:47.431Z,23.20
2018-12-18T03:39:16.223Z,24.27
2018-12-18T03:41:44.900Z,25.27
2018-12-18T03:44:13.532Z,24.27
2018-12-18T03:46:42.130Z,24.27
2018-12-18T03:49:10.808Z,23.90
2018-12-18T03:51:39.500Z,23.83
2018-12-18T03:54:08.135Z,23.83
2018-12-18T03:56:36.829Z,23.10
2018-12-18T03:59:05.632Z,22.37
2018-12-18T04:01:34.358Z,25.97
2018-12-18T04:04:03.062Z,23.30
2018-12-18T04:06:31.737Z,22.67
2018-12-18T04:09:00.350Z,23.33
2018-12-18T04:11:29.021Z,23.90
2018-12-18T04:13:57.669Z,23.53
2018-12-18T04:16:26.414Z,23.90
2018-12-18T04:18:55.041Z,23.70
2018-12-18T04:21:23.693Z,25.97
2018-12-18T04:23:52.419Z,23.87
2018-12-18T04:26:21.100Z,23.60
2018-12-18T04:28:49.954Z,23.40
2018-12-18T04:31:18.636Z,23.73
2018-12-18T04:33:47.291Z,24.10
2018-12-18T04:36:16.289Z,24.27
2018-12-18T04:38:45.043Z,23.33
2018-12-18T04:41:13.706Z,23.43
2018-12-18T04:43:42.393Z,24.87
2018-12-18T04:46:11.038Z,22.53
2018-12-18T04:48:39.706Z,23.03
2018-12-18T04:51:08.322Z,23.37
2018-12-18T04:53:36.966Z,21.53
2018-12-18T04:56:05.690Z,23.70
2018-12-18T04:58:34.423Z,21.77
2018-12-18T05:01:03.133Z,23.87
2018-12-18T05:03:31.882Z,20.33
2018-12-18T05:06:00.513Z,19.10
2018-12-18T05:08:29.136Z,19.17
2018-12-18T05:10:57.765Z,19.27
2018-12-18T05:13:26.429Z,18.77
2018-12-18T05:15:55.208Z,19.70
2018-12-18T05:18:23.981Z,20.00
2018-12-18T05:20:52.986Z,18.50
2018-12-18T05:23:21.635Z,18.43
2018-12-18T05:25:50.338Z,18.50
2018-12-18T05:28:19.043Z,18.00
2018-12-18T05:30:47.733Z,20.03
2018-12-18T05:33:16.504Z,19.83
2018-12-18T05:35:45.188Z,19.07
2018-12-18T05:38:13.853Z,19.07
2018-12-18T05:40:42.661Z,20.67
2018-12-18T05:43:11.304Z,19.47
2018-12-18T05:45:39.953Z,20.53
2018-12-18T05:48:08.775Z,21.43
2018-12-18T05:50:37.529Z,19.87
2018-12-18T05:53:06.400Z,20.27
2018-12-18T05:55:35.106Z,21.37
2018-12-18T05:58:03.948Z,22.23
2018-12-18T06:00:32.619Z,21.97
2018-12-18T06:03:01.268Z,21.57
2018-12-18T06:05:29.883Z,19.10
2018-12-18T06:07:58.572Z,20.47
2018-12-18T06:10:27.278Z,22.47
2018-12-18T06:12:55.909Z,20.47
2018-12-18T06:15:24.561Z,20.53
2018-12-18T06:17:53.284Z,20.97
2018-12-18T06:20:21.904Z,20.67
2018-12-18T06:22:50.566Z,20.80
2018-12-18T06:25:19.277Z,20.70
2018-12-18T06:27:47.989Z,20.87
2018-12-18T06:30:16.701Z,20.97
2018-12-18T06:32:45.374Z,20.10
2018-12-18T06:35:14.064Z,19.17
2018-12-18T06:37:42.725Z,19.97
2018-12-18T06:40:11.416Z,20.27
2018-12-18T06:42:40.062Z,19.57
2018-12-18T06:45:08.771Z,19.93
2018-12-18T06:47:37.491Z,19.27
2018-12-18T06:50:06.320Z,21.10
2018-12-18T06:52:34.969Z,19.63
2018-12-18T06:55:03.745Z,18.37
2018-12-18T06:57:32.470Z,19.20
2018-12-18T07:00:01.130Z,19.07
2018-12-18T07:02:29.779Z,18.53
2018-12-18T07:04:58.512Z,17.83
2018-12-18T07:07:27.162Z,18.07
2018-12-18T07:09:55.895Z,18.50
2018-12-18T07:12:24.552Z,18.00
2018-12-18T07:14:53.174Z,17.03
2018-12-18T07:17:21.878Z,16.70
2018-12-18T07:19:50.559Z,17.93
2018-12-18T07:22:19.244Z,17.90
2018-12-18T07:24:47.985Z,18.77
2018-12-18T07:27:16.652Z,20.07
2018-12-18T07:29:45.315Z,16.83
2018-12-18T07:32:13.976Z,19.23
2018-12-18T07:34:42.741Z,18.00
2018-12-18T07:37:11.449Z,17.00
2018-12-18T07:39:40.139Z,17.90
2018-12-18T07:42:08.798Z,17.57
2018-12-18T07:44:37.534Z,15.20
2018-12-18T07:47:06.231Z,14.90
2018-12-18T07:49:34.905Z,16.57
2018-12-18T07:52:03.567Z,16.60
2018-12-18T07:54:32.274Z,16.30
2018-12-18T07:57:00.945Z,13.97
2018-12-18T07:59:29.624Z,13.10
2018-12-18T08:01:58.287Z,12.53
2018-12-18T08:04:26.927Z,12.37
2018-12-18T08:06:55.576Z,13.40
2018-12-18T08:09:24.289Z,12.93
2018-12-18T08:11:52.982Z,13.57
2018-12-18T08:14:21.702Z,13.07
2018-12-18T08:16:51.183Z,13.53
2018-12-18T08:19:19.883Z,12.50
2018-12-18T08:21:48.594Z,13.03
2018-12-18T08:24:17.282Z,11.30
2018-12-18T08:26:45.910Z,11.60
2018-12-18T08:29:14.706Z,12.47
2018-12-18T08:31:43.385Z,10.93
2018-12-18T08:34:12.149Z,10.80
2018-12-18T08:36:40.839Z,10.40
2018-12-18T08:39:10.256Z,11.43
2018-12-18T08:41:38.924Z,8.67
2018-12-18T08:44:07.589Z,9.93
2018-12-18T08:46:36.267Z,9.47
2018-12-18T08:49:04.970Z,9.43
2018-12-18T08:51:33.636Z,9.27
2018-12-18T08:54:02.260Z,8.93
2018-12-18T08:56:30.946Z,8.43
2018-12-18T08:58:59.653Z,9.50
2018-12-18T09:01:28.370Z,8.30
2018-12-18T09:03:57.002Z,9.40
2018-12-18T09:06:25.725Z,9.87
2018-12-18T09:08:54.390Z,8.17
2018-12-18T09:11:23.113Z,8.70
2018-12-18T09:13:51.828Z,8.27
2018-12-18T09:16:25.787Z,8.33
2018-12-18T09:18:54.631Z,8.40
2018-12-18T09:21:23.360Z,8.13
2018-12-18T09:23:52.516Z,8.87
2018-12-18T09:26:21.303Z,8.07
2018-12-18T09:28:50.065Z,8.23
2018-12-18T09:31:19.042Z,7.97
2018-12-18T09:33:47.727Z,8.47
2018-12-18T09:36:16.396Z,9.20
2018-12-18T09:38:50.350Z,8.40
2018-12-18T09:41:24.261Z,8.70
2018-12-18T09:43:58.695Z,8.00
2018-12-18T09:46:27.511Z,8.70
2018-12-18T09:48:56.141Z,8.13
2018-12-18T09:51:24.911Z,9.80
2018-12-18T09:53:53.680Z,8.70
2018-12-18T09:56:22.356Z,9.37
2018-12-18T09:58:51.210Z,9.60
2018-12-18T10:01:20.432Z,9.43
2018-12-18T10:03:49.080Z,8.53
2018-12-18T10:06:17.723Z,8.30
2018-12-18T10:08:46.362Z,9.80
2018-12-18T10:11:15.016Z,9.50
2018-12-18T10:13:43.671Z,9.73
2018-12-18T10:16:12.304Z,9.03
2018-12-18T10:18:40.966Z,10.03
2018-12-18T10:21:09.739Z,8.27
2018-12-18T10:23:38.421Z,8.03
2018-12-18T10:26:07.138Z,7.53
2018-12-18T10:28:35.837Z,7.80
2018-12-18T10:31:04.537Z,7.37
2018-12-18T10:33:33.196Z,9.13
2018-12-18T10:36:03.081Z,7.57
2018-12-18T10:38:31.974Z,9.40
2018-12-18T10:41:00.608Z,7.83
2018-12-18T10:43:29.354Z,7.80
2018-12-18T10:45:58.108Z,8.00
2018-12-18T10:48:26.760Z,7.77
2018-12-18T10:50:55.464Z,8.20
2018-12-18T10:53:24.183Z,8.90
2018-12-18T10:55:52.851Z,9.47
2018-12-18T10:58:24.157Z,8.93
2018-12-18T11:00:57.603Z,9.67
2018-12-18T11:03:26.350Z,9.77
2018-12-18T11:05:55.022Z,9.63
2018-12-18T11:08:24.711Z,11.50
2018-12-18T11:10:53.456Z,10.87
2018-12-18T11:13:22.286Z,11.47
2018-12-18T11:15:51.010Z,11.90
2018-12-18T11:18:19.788Z,11.30
2018-12-18T11:20:48.522Z,11.70
2018-12-18T11:23:17.229Z,11.57
2018-12-18T11:25:45.955Z,12.20
2018-12-18T11:28:14.689Z,12.30
2018-12-18T11:30:43.490Z,12.77
2018-12-18T11:33:12.149Z,13.03
2018-12-18T11:35:40.813Z,13.67
2018-12-18T11:38:09.484Z,11.90
2018-12-18T11:40:38.182Z,12.57
2018-12-18T11:43:06.857Z,13.53
2018-12-18T11:45:35.561Z,12.33
2018-12-18T11:48:04.248Z,12.23
2018-12-18T11:50:33.031Z,12.13
2018-12-18T11:53:01.655Z,10.90
2018-12-18T11:55:30.514Z,12.50
2018-12-18T11:57:59.162Z,11.93
2018-12-18T12:00:27.861Z,10.20
2018-12-18T12:02:56.596Z,8.33
2018-12-18T12:05:25.289Z,10.13
2018-12-18T12:07:53.926Z,9.77
2018-12-18T12:10:22.614Z,9.97
2018-12-18T12:12:51.259Z,9.27
2018-12-18T12:15:20.096Z,8.97
2018-12-18T12:17:49.066Z,8.80
2018-12-18T12:20:17.814Z,9.43
2018-12-18T12:22:46.483Z,8.33
2018-12-18T12:25:15.164Z,8.50
2018-12-18T12:27:49.111Z,8.37
2018-12-18T12:30:17.793Z,7.97
2018-12-18T12:32:46.445Z,9.00
2018-12-18T12:35:15.104Z,8.70
2018-12-18T12:37:43.778Z,8.13
2018-12-18T12:40:12.420Z,8.20
2018-12-18T12:42:41.108Z,7.20
2018-12-18T12:45:09.825Z,7.50
2018-12-18T12:47:38.452Z,6.93
2018-12-18T12:50:08.092Z,6.30
2018-12-18T12:52:36.819Z,6.57
2018-12-18T12:55:05.880Z,5.93
2018-12-18T12:57:34.535Z,6.17
2018-12-18T13:00:03.363Z,7.03
2018-12-18T13:02:32.041Z,5.93
2018-12-18T13:05:00.747Z,5.67
2018-12-18T13:07:29.457Z,7.10
2018-12-18T13:09:58.181Z,5.27
2018-12-18T13:12:28.969Z,5.90
2018-12-18T13:14:58.075Z,6.17
2018-12-18T13:17:26.821Z,5.50
2018-12-18T13:19:55.557Z,5.63
2018-12-18T13:22:24.253Z,5.97
2018-12-18T13:24:52.911Z,5.83
2018-12-18T13:27:21.599Z,6.50
2018-12-18T13:29:50.600Z,6.30
2018-12-18T13:32:19.354Z,5.93
2018-12-18T13:34:48.214Z,6.40
2018-12-18T13:37:16.931Z,6.23
2018-12-18T13:39:45.618Z,6.13
2018-12-18T13:42:14.337Z,5.60
2018-12-18T13:44:43.029Z,5.73
2018-12-18T13:47:11.681Z,5.23
2018-12-18T13:49:40.413Z,5.30
2018-12-18T13:52:09.087Z,5.47
2018-12-18T13:54:37.776Z,4.70
2018-12-18T13:57:06.513Z,4.43
2018-12-18T13:59:35.194Z,4.30
2018-12-18T14:02:03.869Z,4.67
2018-12-18T14:04:32.572Z,4.70
2018-12-18T14:07:01.285Z,4.57
2018-12-18T14:09:29.989Z,4.23
2018-12-18T14:11:58.756Z,4.50
2018-12-18T14:14:27.450Z,4.17
2018-12-18T14:16:56.166Z,4.73
2018-12-18T14:19:24.902Z,4.20
2018-12-18T14:21:53.640Z,4.50
2018-12-18T14:24:22.347Z,4.57
2018-12-18T14:26:51.348Z,4.33
2018-12-18T14:29:20.170Z,4.63
2018-12-18T14:31:48.867Z,4.70
2018-12-18T14:34:17.583Z,5.30
2018-12-18T14:36:46.259Z,4.03
2018-12-18T14:39:14.936Z,4.80
2018-12-18T14:41:43.632Z,4.77
2018-12-18T14:44:12.279Z,4.40
2018-12-18T14:46:40.957Z,4.13
2018-12-18T14:49:09.663Z,4.47
2018-12-18T14:51:38.656Z,4.30
2018-12-18T14:54:07.337Z,4.90
2018-12-18T14:56:36.067Z,3.53
2018-12-18T14:59:04.752Z,3.73
2018-12-18T15:01:33.437Z,4.47
2018-12-18T15:04:02.112Z,3.90
2018-12-18T15:06:30.761Z,4.17
2018-12-18T15:08:59.390Z,4.23
2018-12-18T15:11:28.139Z,4.10
2018-12-18T15:13:56.791Z,3.63
2018-12-18T15:16:25.463Z,4.33
2018-12-18T15:18:54.160Z,4.53
2018-12-18T15:21:22.867Z,4.23
2018-12-18T15:23:51.512Z,3.60
2018-12-18T15:26:20.411Z,3.67
2018-12-18T15:28:49.137Z,4.10
2018-12-18T15:31:18.221Z,4.27
2018-12-18T15:33:46.988Z,4.20
2018-12-18T15:36:15.816Z,4.53
2018-12-18T15:38:44.549Z,4.50
2018-12-18T15:41:13.261Z,5.87
2018-12-18T15:43:41.965Z,5.47
2018-12-18T15:46:10.643Z,5.07
2018-12-18T15:48:39.362Z,4.40
2018-12-18T15:51:08.094Z,4.30
2018-12-18T15:53:36.746Z,4.00
2018-12-18T15:56:05.441Z,3.80
2018-12-18T15:58:34.117Z,3.77
2018-12-18T16:01:02.803Z,4.80
2018-12-18T16:03:31.483Z,4.17
2018-12-18T16:06:00.161Z,3.47
2018-12-18T16:08:28.805Z,3.27
2018-12-18T16:10:57.588Z,3.67
2018-12-18T16:13:26.304Z,3.47
2018-12-18T16:15:54.986Z,3.90
2018-12-18T16:18:23.742Z,3.87
2018-12-18T16:20:52.401Z,3.30
2018-12-18T16:23:21.102Z,4.30
2018-12-18T16:25:49.812Z,4.93
2018-12-18T16:28:18.534Z,4.57
2018-12-18T16:30:47.200Z,4.93
2018-12-18T16:33:15.912Z,5.20
2018-12-18T16:35:46.299Z,4.03
2018-12-18T16:38:15.332Z,4.00
2018-12-18T16:40:43.992Z,4.00
2018-12-18T16:43:12.675Z,3.57
2018-12-18T16:45:41.379Z,3.23
2018-12-18T16:48:10.079Z,3.50
2018-12-18T16:50:38.748Z,2.93
2018-12-18T16:53:07.431Z,3.23
2018-12-18T16:55:36.222Z,3.10
2018-12-18T16:58:04.880Z,3.10
2018-12-18T17:00:33.607Z,3.43
2018-12-18T17:03:02.251Z,3.93
2018-12-18T17:05:30.997Z,3.40
2018-12-18T17:07:59.697Z,2.60
2018-12-18T17:10:35.144Z,3.20
2018-12-18T17:13:03.837Z,3.53
2018-12-18T17:15:32.478Z,3.27
2018-12-18T17:18:01.227Z,3.20
2018-12-18T17:20:29.880Z,3.23
2018-12-18T17:22:58.525Z,2.80
2018-12-18T17:25:27.338Z,3.77
2018-12-18T17:27:55.977Z,3.90
2018-12-18T17:30:24.722Z,2.83
2018-12-18T17:32:53.431Z,3.23
2018-12-18T17:35:22.137Z,3.30
2018-12-18T17:37:50.810Z,2.63
2018-12-18T17:40:19.587Z,3.30
2018-12-18T17:42:48.300Z,3.60
2018-12-18T17:45:17.024Z,2.40
2018-12-18T17:47:45.806Z,2.80
2018-12-18T17:50:14.587Z,3.03
2018-12-18T17:52:43.350Z,2.73
2018-12-18T17:55:12.092Z,3.10
2018-12-18T17:57:40.777Z,3.30
2018-12-18T18:00:12.789Z,3.30
2018-12-18T18:02:42.091Z,2.90
2018-12-18T18:05:10.756Z,3.20
2018-12-18T18:07:42.889Z,3.57
2018-12-18T18:10:10.292Z,3.23
2018-12-18T18:12:50.713Z,3.40
2018-12-18T18:15:33.647Z,3.37
2018-12-18T18:18:11.122Z,3.20
2018-12-18T18:20:49.211Z,3.23
2018-12-18T18:23:23.495Z,4.03
2018-12-18T18:26:02.945Z,3.50
2018-12-18T18:31:43.517Z,3.93
2018-12-18T18:37:31.924Z,3.40
2018-12-18T18:40:14.521Z,3.30
2018-12-18T18:42:52.304Z,3.13
2018-12-18T18:45:27.797Z,3.20
2018-12-18T18:47:59.220Z,2.97
2018-12-18T18:50:36.898Z,2.53
2018-12-18T18:56:19.597Z,2.70
2018-12-18T18:58:58.137Z,2.87
2018-12-18T19:01:37.318Z,3.30
2018-12-18T19:04:17.987Z,2.80
2018-12-18T19:06:53.593Z,2.80
2018-12-18T19:09:25.402Z,3.10
2018-12-18T19:12:02.526Z,2.73
2018-12-18T19:14:43.124Z,3.30
2018-12-18T19:17:30.440Z,3.23
2018-12-18T19:20:20.253Z,2.80
2018-12-18T19:22:57.087Z,3.13
2018-12-18T19:25:30.876Z,3.07
2018-12-18T19:27:59.685Z,2.93
2018-12-18T19:30:30.117Z,2.67
2018-12-18T19:33:01.472Z,2.53
2018-12-18T19:35:34.090Z,2.90
2018-12-18T19:38:05.505Z,2.87
2018-12-18T19:40:41.392Z,2.67
2018-12-18T19:43:11.027Z,3.07
2018-12-18T19:45:41.816Z,3.00
2018-12-18T19:48:14.006Z,3.63
2018-12-18T19:50:47.633Z,3.50
2018-12-18T19:53:20.927Z,3.90
2018-12-18T19:55:51.410Z,3.60
2018-12-18T19:58:21.842Z,3.90
2018-12-18T20:00:53.806Z,4.13
2018-12-18T20:03:26.187Z,3.67
2018-12-18T20:06:00.136Z,3.80
2018-12-18T20:08:31.033Z,3.97
2018-12-18T20:10:59.938Z,4.43
2018-12-18T20:13:34.206Z,4.20
2018-12-18T20:16:10.704Z,4.47
2018-12-18T20:18:43.665Z,5.00
2018-12-18T20:21:17.526Z,4.73
2018-12-18T20:23:56.378Z,4.70
2018-12-18T20:26:29.792Z,4.60
2018-12-18T20:29:04.889Z,5.20
2018-12-18T20:31:41.957Z,4.87
2018-12-18T20:34:16.674Z,4.97
2018-12-18T20:36:49.217Z,5.00
2018-12-18T20:39:20.804Z,5.23
2018-12-18T20:41:51.465Z,5.17
2018-12-18T20:44:24.652Z,4.63
2018-12-18T20:46:59.727Z,5.40
2018-12-18T20:49:33.592Z,5.30
2018-12-18T20:52:05.911Z,4.97
2018-12-18T20:54:34.841Z,5.07
2018-12-18T20:57:03.553Z,4.77
2018-12-18T20:59:32.287Z,5.00
2018-12-18T21:02:00.978Z,6.23
2018-12-18T21:04:29.761Z,4.57
2018-12-18T21:06:58.912Z,5.37
2018-12-18T21:09:27.728Z,4.43
2018-12-18T21:11:56.390Z,4.47
2018-12-18T21:14:25.127Z,5.43
2018-12-18T21:16:53.784Z,4.37
2018-12-18T21:19:22.533Z,4.67
2018-12-18T21:21:51.268Z,3.67
2018-12-18T21:24:19.954Z,4.20
2018-12-18T21:26:48.674Z,5.43
2018-12-18T21:29:17.333Z,3.93
2018-12-18T21:31:46.104Z,4.70
2018-12-18T21:34:14.799Z,4.10
2018-12-18T21:36:43.625Z,4.10
2018-12-18T21:39:12.332Z,4.27
2018-12-18T21:41:41.157Z,3.70
2018-12-18T21:44:09.848Z,3.57
2018-12-18T21:46:38.497Z,3.70
2018-12-18T21:49:07.124Z,4.07
2018-12-18T21:51:35.830Z,3.63
2018-12-18T21:54:04.476Z,3.17
2018-12-18T21:56:33.135Z,4.10
2018-12-18T21:59:01.791Z,3.70
2018-12-18T22:01:30.423Z,3.50
2018-12-18T22:03:59.082Z,3.70
2018-12-18T22:06:27.820Z,3.40
2018-12-18T22:08:56.475Z,3.30
2018-12-18T22:11:25.124Z,3.53
2018-12-18T22:13:53.815Z,3.70
2018-12-18T22:16:22.391Z,3.47
2018-12-18T22:18:51.076Z,3.13
2018-12-18T22:21:19.676Z,3.53
2018-12-18T22:23:48.315Z,3.30
2018-12-18T22:26:16.944Z,3.43
2018-12-18T22:28:45.575Z,3.30
2018-12-18T22:31:14.224Z,2.57
2018-12-18T22:33:42.841Z,3.37
2018-12-18T22:36:11.500Z,2.63
2018-12-18T22:38:43.533Z,2.83
2018-12-18T22:41:10.826Z,3.23
2018-12-18T22:43:39.475Z,2.80
2018-12-18T22:46:08.380Z,2.90
2018-12-18T22:48:37.815Z,2.60
2018-12-18T22:51:06.449Z,3.10
2018-12-18T22:53:35.082Z,2.80
2018-12-18T22:56:04.236Z,3.40
2018-12-18T22:58:32.927Z,2.70
2018-12-18T23:01:05.333Z,2.37
2018-12-18T23:03:34.071Z,2.87
2018-12-18T23:06:02.702Z,3.67
2018-12-18T23:08:31.571Z,3.30
2018-12-18T23:11:00.294Z,2.60
2018-12-18T23:13:28.892Z,3.07
2018-12-18T23:15:57.560Z,2.93
2018-12-18T23:18:26.241Z,3.00
2018-12-18T23:20:54.845Z,3.07
2018-12-18T23:23:23.459Z,2.90
2018-12-18T23:25:52.153Z,2.93
2018-12-18T23:28:20.748Z,2.53
2018-12-18T23:30:49.335Z,2.70
2018-12-18T23:33:17.956Z,2.63
2018-12-18T23:35:46.624Z,2.63
2018-12-18T23:38:15.474Z,2.83
2018-12-18T23:40:44.162Z,3.07
2018-12-18T23:43:12.784Z,2.90
2018-12-18T23:45:41.429Z,3.00
2018-12-18T23:48:10.073Z,3.60
2018-12-18T23:50:38.735Z,2.57
2018-12-18T23:53:07.352Z,2.90
2018-12-18T23:55:35.995Z,2.90
2018-12-18T23:58:04.599Z,3.20
